Time;durP1;ratioP1;P1;durP2;ratioP2;P2;SDS_P1;SDS_P2;PMS_P1;PMS_P2;Temp;Humidity;BMP_temperature;BMP_pressure;BME280_temperature;BME280_humidity;BME280_pressure;Samples;Min_cycle;Max_cycle;Signal;HPM_P1;HPM_P2
2022/11/18 00:00:50;;;;;;;57.55;29.83;;;7.10;99.90;;;;;;5073454;28;20396;-29
2022/11/18 00:03:16;;;;;;;46.28;27.13;;;7.10;99.90;;;;;;5091990;28;20043;-30
2022/11/18 00:05:41;;;;;;;46.97;27.10;;;7.10;99.90;;;;;;5073422;28;20075;-30
2022/11/18 00:08:07;;;;;;;49.35;28.00;;;7.10;99.90;;;;;;5073911;28;20075;-31
2022/11/18 00:10:36;;;;;;;58.85;30.30;;;7.10;99.90;;;;;;5090481;28;20040;-29
2022/11/18 00:15:46;;;;;;;59.22;29.83;;;7.20;99.90;;;;;;5091665;28;20071;-29
2022/11/18 00:18:12;;;;;;;54.25;30.88;;;7.20;99.90;;;;;;5073783;28;20489;-30
2022/11/18 00:20:38;;;;;;;55.25;30.15;;;7.20;99.90;;;;;;5073759;28;20376;-30
2022/11/18 00:23:04;;;;;;;62.53;32.17;;;7.20;99.90;;;;;;5057009;28;20050;-29
2022/11/18 00:25:29;;;;;;;49.03;28.90;;;7.20;99.90;;;;;;5073567;28;20043;-29
2022/11/18 00:27:55;;;;;;;51.38;28.33;;;7.20;99.90;;;;;;5058326;28;20397;-29
2022/11/18 00:30:21;;;;;;;52.38;28.15;;;7.20;99.90;;;;;;5077464;28;20040;-29
2022/11/18 00:32:46;;;;;;;56.55;28.52;;;7.30;99.90;;;;;;5077040;28;20039;-31
2022/11/18 00:35:12;;;;;;;50.05;28.77;;;7.30;99.90;;;;;;5094111;28;20047;-29
2022/11/18 00:37:38;;;;;;;62.83;30.45;;;7.30;99.90;;;;;;5077058;28;20040;-30
2022/11/18 00:40:04;;;;;;;57.50;30.30;;;7.30;99.90;;;;;;5077019;28;20375;-29
2022/11/18 00:45:14;;;;;;;;;;;7.30;99.90;;;;;;5095535;28;20036;-31
2022/11/18 00:47:39;;;;;;;57.00;31.88;;;7.30;99.90;;;;;;5076897;28;19916;-29
2022/11/18 00:50:05;;;;;;;56.05;29.92;;;7.30;99.90;;;;;;5077023;28;20032;-31
2022/11/18 00:52:31;;;;;;;50.80;28.60;;;7.30;99.90;;;;;;5093754;28;20424;-30
2022/11/18 00:54:57;;;;;;;50.45;28.23;;;7.30;99.90;;;;;;5076612;28;20044;-30
2022/11/18 00:57:22;;;;;;;53.33;28.83;;;7.40;99.90;;;;;;5076539;28;20044;-30
2022/11/18 00:59:48;;;;;;;50.88;29.52;;;7.40;99.90;;;;;;5093209;28;20075;-29
2022/11/18 01:02:14;;;;;;;63.60;31.63;;;7.40;99.90;;;;;;5076569;28;20066;-30
2022/11/18 01:04:39;;;;;;;65.53;31.73;;;7.40;99.90;;;;;;5076468;28;20035;-29
2022/11/18 01:07:05;;;;;;;59.60;30.10;;;7.40;99.90;;;;;;5076626;28;20038;-29
2022/11/18 01:09:31;;;;;;;55.85;31.85;;;7.40;99.90;;;;;;5076515;28;20036;-30
2022/11/18 01:14:40;;;;;;;58.42;29.77;;;7.40;99.90;;;;;;5094528;28;20329;-30
2022/11/18 01:17:06;;;;;;;54.60;29.08;;;7.30;99.90;;;;;;5093193;28;20048;-29
2022/11/18 01:19:32;;;;;;;52.28;28.45;;;7.40;99.90;;;;;;5076112;28;20044;-29
2022/11/18 01:22:01;;;;;;;57.17;30.35;;;7.40;99.90;;;;;;5075939;28;20085;-29
2022/11/18 01:24:28;;;;;;;59.47;30.55;;;7.40;99.90;;;;;;5093043;28;20137;-29
2022/11/18 01:26:54;;;;;;;59.38;31.95;;;7.40;99.90;;;;;;5076013;28;20036;-30
2022/11/18 01:29:20;;;;;;;58.45;30.33;;;7.40;99.90;;;;;;5076244;28;20028;-30
2022/11/18 01:31:46;;;;;;;59.42;32.13;;;7.40;99.90;;;;;;5076346;28;20115;-31
2022/11/18 01:34:11;;;;;;;56.13;30.90;;;7.40;99.90;;;;;;5076627;28;20047;-30
2022/11/18 01:36:37;;;;;;;64.78;32.25;;;7.40;99.90;;;;;;5092970;28;20457;-30
2022/11/18 01:39:03;;;;;;;63.13;31.25;;;7.40;99.90;;;;;;5074971;28;20044;-29
2022/11/18 01:41:29;;;;;;;57.65;31.27;;;7.40;99.90;;;;;;5075985;28;20067;-29
2022/11/18 01:44:25;;;;;;;54.97;31.40;;;7.40;99.90;;;;;;5075497;28;20474;-30
2022/11/18 01:46:51;;;;;;;59.60;33.15;;;7.40;99.90;;;;;;5075588;28;20035;-29
2022/11/18 01:49:17;;;;;;;50.50;29.25;;;7.40;99.90;;;;;;5075734;28;20042;-29
2022/11/18 01:51:56;;;;;;;55.70;29.85;;;7.40;99.90;;;;;;5075801;28;20382;-30
2022/11/18 01:54:32;;;;;;;51.80;30.15;;;7.40;99.90;;;;;;5075565;28;20497;-30
2022/11/18 01:57:02;;;;;;;56.95;32.15;;;7.40;99.90;;;;;;5075550;28;20040;-30
2022/11/18 01:59:32;;;;;;;63.67;31.70;;;7.40;99.90;;;;;;5057734;28;20048;-30
2022/11/18 02:02:00;;;;;;;59.03;32.33;;;7.40;99.90;;;;;;5055232;28;20053;-31
2022/11/18 02:04:26;;;;;;;56.35;31.08;;;7.40;99.90;;;;;;5055182;28;20040;-30
2022/11/18 02:06:54;;;;;;;57.38;30.75;;;7.40;99.90;;;;;;5055347;28;20040;-29
2022/11/18 02:09:20;;;;;;;51.28;28.90;;;7.40;99.90;;;;;;5055504;28;20120;-30
2022/11/18 02:11:50;;;;;;;54.60;30.50;;;7.40;99.90;;;;;;5055327;28;20040;-30
2022/11/18 02:14:19;;;;;;;49.17;29.15;;;7.40;99.90;;;;;;5055264;28;20040;-31
2022/11/18 02:16:58;;;;;;;52.67;29.05;;;7.40;99.90;;;;;;5055136;28;20121;-30
2022/11/18 02:19:45;;;;;;;57.30;31.65;;;7.40;99.90;;;;;;5071502;28;20080;-31
2022/11/18 02:22:44;;;;;;;48.65;29.80;;;7.40;99.90;;;;;;5071691;28;20505;-29
2022/11/18 02:25:49;;;;;;;53.15;29.55;;;7.40;99.90;;;;;;5071683;28;20040;-30
2022/11/18 02:28:54;;;;;;;50.53;29.13;;;7.40;99.90;;;;;;5054799;28;20036;-29
2022/11/18 02:31:26;;;;;;;50.38;29.30;;;7.40;99.90;;;;;;5071799;28;20560;-30
2022/11/18 02:33:58;;;;;;;45.55;27.73;;;7.40;99.90;;;;;;5052895;28;20478;-32
2022/11/18 02:36:57;;;;;;;47.30;27.33;;;7.40;99.90;;;;;;5053724;28;20405;-33
2022/11/18 02:39:35;;;;;;;51.80;28.88;;;7.40;99.90;;;;;;5063422;28;20059;-32
2022/11/18 02:42:06;;;;;;;44.80;27.63;;;7.40;99.90;;;;;;5047340;28;20040;-32
2022/11/18 02:44:33;;;;;;;43.80;27.17;;;7.40;99.90;;;;;;5055555;28;20537;-32
2022/11/18 02:47:05;;;;;;;47.58;28.80;;;7.40;99.90;;;;;;5056401;28;20082;-31
2022/11/18 02:49:45;;;;;;;46.08;27.38;;;7.40;99.90;;;;;;5060869;28;20028;-33
2022/11/18 02:52:14;;;;;;;48.30;29.50;;;7.40;99.90;;;;;;5058091;28;20052;-31
2022/11/18 02:54:43;;;;;;;44.83;27.73;;;7.40;99.90;;;;;;5077950;28;20102;-32
2022/11/18 02:57:09;;;;;;;41.88;26.92;;;7.40;99.90;;;;;;5059590;28;20120;-31
2022/11/18 02:59:35;;;;;;;46.35;27.67;;;7.40;99.90;;;;;;5053560;28;20119;-31
2022/11/18 03:02:01;;;;;;;50.65;28.85;;;7.40;99.90;;;;;;5053189;28;20040;-31
2022/11/18 03:04:28;;;;;;;45.53;27.95;;;7.40;99.90;;;;;;5057714;28;20045;-32
2022/11/18 03:07:14;;;;;;;46.20;26.63;;;7.40;99.90;;;;;;5052327;28;20048;-32
2022/11/18 03:09:43;;;;;;;48.90;28.10;;;7.30;99.90;;;;;;5050928;28;20029;-32
2022/11/18 03:12:20;;;;;;;44.60;26.65;;;7.40;99.90;;;;;;5048087;28;20036;-32
2022/11/18 03:14:58;;;;;;;49.40;28.42;;;7.40;99.90;;;;;;5056381;28;20069;-31
2022/11/18 03:17:41;;;;;;;50.67;28.10;;;7.30;99.90;;;;;;5068943;28;20416;-32
2022/11/18 03:20:25;;;;;;;49.75;27.95;;;7.30;99.90;;;;;;5065437;28;20044;-33
2022/11/18 03:23:13;;;;;;;49.70;27.35;;;7.30;99.90;;;;;;5072417;28;20434;-33
2022/11/18 03:25:53;;;;;;;44.92;26.63;;;7.30;99.90;;;;;;5048060;28;20033;-32
2022/11/18 03:28:45;;;;;;;50.95;28.58;;;7.30;99.90;;;;;;5066806;28;20037;-32
2022/11/18 03:31:34;;;;;;;43.10;26.73;;;7.30;99.90;;;;;;5050478;28;20115;-31
2022/11/18 03:34:09;;;;;;;39.90;25.38;;;7.40;99.90;;;;;;5052459;28;20552;-32
2022/11/18 03:36:40;;;;;;;46.63;26.95;;;7.30;99.90;;;;;;5068480;28;20436;-31
2022/11/18 03:39:09;;;;;;;42.55;26.10;;;7.30;99.90;;;;;;5049680;28;20505;-32
2022/11/18 03:41:43;;;;;;;45.63;27.02;;;7.30;99.90;;;;;;5045314;28;20409;-31
2022/11/18 03:44:15;;;;;;;;;;;7.30;99.90;;;;;;5054242;28;20036;-29
2022/11/18 03:46:50;;;;;;;41.20;26.02;;;7.30;99.90;;;;;;5050921;28;19917;-34
2022/11/18 03:49:26;;;;;;;47.75;27.42;;;7.30;99.90;;;;;;5052310;28;20032;-33
2022/11/18 03:51:59;;;;;;;49.60;27.88;;;7.30;99.90;;;;;;5052882;28;20036;-32
2022/11/18 03:54:30;;;;;;;44.28;26.98;;;7.30;99.90;;;;;;5050977;28;20033;-30
2022/11/18 03:57:01;;;;;;;44.35;27.27;;;7.30;99.90;;;;;;5052488;28;20037;-31
2022/11/18 04:00:01;;;;;;;46.55;27.73;;;7.30;99.90;;;;;;5049921;28;20072;-33
2022/11/18 04:02:29;;;;;;;46.80;26.88;;;7.30;99.90;;;;;;5048916;28;20521;-32
2022/11/18 04:04:56;;;;;;;44.80;25.20;;;7.30;99.90;;;;;;5053307;28;20037;-31
2022/11/18 04:07:49;;;;;;;46.78;27.30;;;7.30;99.90;;;;;;5052190;28;20033;-33
2022/11/18 04:10:16;;;;;;;48.63;27.45;;;7.30;99.90;;;;;;5050611;28;20068;-31
2022/11/18 04:13:09;;;;;;;44.30;26.88;;;7.30;99.90;;;;;;5058421;28;20125;-31
2022/11/18 04:15:40;;;;;;;45.88;26.75;;;7.30;99.90;;;;;;5049846;28;20068;-31
2022/11/18 04:18:07;;;;;;;48.53;27.30;;;7.30;99.90;;;;;;5060445;28;20046;-32
2022/11/18 04:20:34;;;;;;;42.25;26.50;;;7.30;99.90;;;;;;5049799;28;20400;-31
2022/11/18 04:23:00;;;;;;;42.42;27.00;;;7.30;99.90;;;;;;5058080;28;20101;-33
2022/11/18 04:25:26;;;;;;;44.92;27.45;;;7.30;99.90;;;;;;5047713;28;20029;-32
2022/11/18 04:27:52;;;;;;;45.85;26.35;;;7.20;99.90;;;;;;5053022;28;20106;-32
2022/11/18 04:30:18;;;;;;;46.30;26.48;;;7.30;99.90;;;;;;5069460;28;20041;-31
2022/11/18 04:32:45;;;;;;;47.45;27.50;;;7.30;99.90;;;;;;5053201;28;20044;-31
2022/11/18 04:35:10;;;;;;;48.13;27.25;;;7.30;99.90;;;;;;5053443;28;20047;-32
2022/11/18 04:37:36;;;;;;;45.53;25.67;;;7.30;99.90;;;;;;5057455;28;20385;-31
2022/11/18 04:40:03;;;;;;;43.65;27.25;;;7.20;99.90;;;;;;5057947;28;20076;-33
2022/11/18 04:42:28;;;;;;;49.47;26.73;;;7.20;99.90;;;;;;5051501;28;20044;-32
2022/11/18 04:44:54;;;;;;;45.05;25.90;;;7.20;99.90;;;;;;5050030;28;20082;-32
2022/11/18 04:47:20;;;;;;;48.30;26.63;;;7.20;99.90;;;;;;5055536;28;20071;-33
2022/11/18 04:49:45;;;;;;;52.78;27.52;;;7.30;99.90;;;;;;5054955;28;20029;-31
2022/11/18 04:52:11;;;;;;;46.25;26.15;;;7.20;99.90;;;;;;5057770;28;20048;-33
2022/11/18 04:54:37;;;;;;;44.20;25.55;;;7.20;99.90;;;;;;5060860;28;20079;-33
2022/11/18 04:57:03;;;;;;;47.40;26.02;;;7.20;99.90;;;;;;5059266;28;20089;-33
2022/11/18 04:59:29;;;;;;;49.58;26.60;;;7.20;99.90;;;;;;5059465;28;20050;-32
2022/11/18 05:01:56;;;;;;;42.75;26.20;;;7.20;99.90;;;;;;5056595;28;20040;-31
2022/11/18 05:04:24;;;;;;;42.20;25.90;;;7.20;99.90;;;;;;5057255;28;20040;-30
2022/11/18 05:06:50;;;;;;;46.30;26.00;;;7.20;99.90;;;;;;5052654;28;20068;-30
2022/11/18 05:09:17;;;;;;;43.75;25.23;;;7.20;99.90;;;;;;5049213;28;20037;-32
2022/11/18 05:14:28;;;;;;;39.92;24.85;;;7.20;99.90;;;;;;5072391;28;20550;-32
2022/11/18 05:16:56;;;;;;;46.15;24.80;;;7.20;99.90;;;;;;5060480;28;20115;-31
2022/11/18 05:19:22;;;;;;;42.92;24.20;;;7.20;99.90;;;;;;5063615;28;20032;-31
2022/11/18 05:21:47;;;;;;;42.47;24.65;;;7.10;99.90;;;;;;5063380;28;20037;-32
2022/11/18 05:24:13;;;;;;;44.40;25.08;;;7.10;99.90;;;;;;5061853;28;20036;-31
2022/11/18 05:26:39;;;;;;;44.90;25.42;;;7.10;99.90;;;;;;5046541;28;20033;-32
2022/11/18 05:29:05;;;;;;;40.97;24.65;;;7.10;99.90;;;;;;5058015;28;20448;-31
2022/11/18 05:31:31;;;;;;;42.67;25.15;;;7.10;99.90;;;;;;5059070;28;20043;-32
2022/11/18 05:33:57;;;;;;;41.50;24.55;;;7.10;99.90;;;;;;5062329;28;20047;-31
2022/11/18 05:36:23;;;;;;;40.03;24.17;;;7.10;99.90;;;;;;5051804;28;20040;-34
2022/11/18 05:38:49;;;;;;;46.28;25.02;;;7.10;99.90;;;;;;5051593;28;20032;-30
2022/11/18 05:44:01;;;;;;;46.92;24.55;;;7.10;99.90;;;;;;5080787;28;20123;-30
2022/11/18 05:46:28;;;;;;;42.50;25.20;;;7.10;99.90;;;;;;5051814;28;20045;-31
2022/11/18 05:48:55;;;;;;;43.08;24.52;;;7.10;99.90;;;;;;5045923;28;20074;-32
2022/11/18 05:51:21;;;;;;;49.35;27.33;;;7.10;99.90;;;;;;5044514;28;20040;-31
2022/11/18 05:53:49;;;;;;;40.38;24.00;;;7.10;99.90;;;;;;5051827;28;20121;-32
2022/11/18 05:56:23;;;;;;;47.70;26.27;;;7.10;99.90;;;;;;5038574;28;20063;-31
2022/11/18 05:58:49;;;;;;;46.33;25.17;;;7.10;99.90;;;;;;5060819;28;20037;-31
2022/11/18 06:01:29;;;;;;;48.55;27.10;;;7.10;99.90;;;;;;5054552;28;20563;-32
2022/11/18 06:03:55;;;;;;;44.53;25.98;;;7.10;99.90;;;;;;5062752;28;20099;-32
2022/11/18 06:06:22;;;;;;;44.30;26.00;;;7.10;99.90;;;;;;5040860;28;20402;-32
2022/11/18 06:08:58;;;;;;;42.40;25.33;;;7.10;99.90;;;;;;5050903;28;20033;-32
2022/11/18 06:11:24;;;;;;;41.55;25.20;;;7.10;99.90;;;;;;5042495;28;20098;-30
2022/11/18 06:14:10;;;;;;;46.22;26.33;;;7.10;99.90;;;;;;5066031;28;20420;-30
2022/11/18 06:16:39;;;;;;;42.55;25.55;;;7.10;99.90;;;;;;5043409;28;20051;-33
2022/11/18 06:19:05;;;;;;;43.30;24.10;;;7.00;99.90;;;;;;5059140;28;20028;-32
2022/11/18 06:21:32;;;;;;;40.28;24.60;;;7.00;99.90;;;;;;5035405;28;20079;-32
2022/11/18 06:23:58;;;;;;;47.38;25.33;;;7.00;99.90;;;;;;5051462;28;20039;-32
2022/11/18 06:26:26;;;;;;;42.97;24.92;;;7.00;99.90;;;;;;5044118;28;20036;-31
2022/11/18 06:28:54;;;;;;;36.42;22.48;;;7.00;99.90;;;;;;5043809;28;20045;-31
2022/11/18 06:31:20;;;;;;;42.03;24.23;;;7.00;99.90;;;;;;5050486;28;20387;-31
2022/11/18 06:33:46;;;;;;;45.20;23.48;;;7.00;99.90;;;;;;5044452;28;20039;-32
2022/11/18 06:36:11;;;;;;;52.38;25.42;;;7.00;99.90;;;;;;5048486;28;20048;-31
2022/11/18 06:38:37;;;;;;;49.90;25.67;;;7.00;99.90;;;;;;5064165;28;20037;-32
2022/11/18 06:41:03;;;;;;;43.90;23.13;;;7.00;99.90;;;;;;5054247;28;20509;-32
2022/11/18 06:43:40;;;;;;;39.70;22.45;;;7.00;99.90;;;;;;5065326;28;20103;-32
2022/11/18 06:48:53;;;;;;;37.75;21.67;;;7.00;99.90;;;;;;5070692;28;20051;-30
2022/11/18 06:51:19;;;;;;;38.78;22.23;;;7.00;99.90;;;;;;5055827;28;20044;-31
2022/11/18 06:53:45;;;;;;;37.33;21.17;;;6.90;99.90;;;;;;5053156;28;20440;-32
2022/11/18 06:56:13;;;;;;;41.80;21.80;;;6.90;99.90;;;;;;5057460;28;20043;-31
2022/11/18 06:58:39;;;;;;;36.47;21.15;;;6.90;99.90;;;;;;5060592;28;20039;-32
2022/11/18 07:01:14;;;;;;;33.10;20.50;;;6.90;99.90;;;;;;5072680;28;20037;-31
2022/11/18 07:03:40;;;;;;;34.90;19.10;;;6.90;99.90;;;;;;5052005;28;20055;-32
2022/11/18 07:06:07;;;;;;;34.20;18.13;;;6.90;99.90;;;;;;5053067;28;20558;-32
2022/11/18 07:08:37;;;;;;;32.40;17.75;;;6.90;99.90;;;;;;5053714;28;20040;-32
2022/11/18 07:11:07;;;;;;;29.45;17.27;;;6.90;99.90;;;;;;5064522;28;20033;-31
2022/11/18 07:13:34;;;;;;;29.00;17.10;;;6.90;99.90;;;;;;5050575;28;20101;-31
2022/11/18 07:16:05;;;;;;;26.55;15.85;;;6.90;99.90;;;;;;5056627;28;20047;-32
2022/11/18 07:18:33;;;;;;;25.00;15.98;;;6.90;99.90;;;;;;5054275;28;20040;-31
2022/11/18 07:21:03;;;;;;;29.90;15.65;;;6.90;99.90;;;;;;5051614;28;20041;-34
2022/11/18 07:23:30;;;;;;;27.52;16.65;;;6.90;99.90;;;;;;5053110;28;20032;-32
2022/11/18 07:26:00;;;;;;;29.02;16.20;;;6.90;99.90;;;;;;5050678;28;20029;-33
2022/11/18 07:28:27;;;;;;;27.00;16.00;;;6.90;99.90;;;;;;5043388;28;20067;-31
2022/11/18 07:31:03;;;;;;;29.23;16.48;;;6.90;99.90;;;;;;5047207;28;20041;-31
2022/11/18 07:33:29;;;;;;;28.42;17.38;;;6.90;99.90;;;;;;5067893;28;20101;-32
2022/11/18 07:35:58;;;;;;;33.95;18.35;;;6.90;99.90;;;;;;5052901;28;20029;-30
2022/11/18 07:38:24;;;;;;;31.98;18.35;;;6.90;99.90;;;;;;5060400;28;20039;-32
2022/11/18 07:40:50;;;;;;;35.65;19.10;;;6.90;99.90;;;;;;5057295;28;20067;-31
2022/11/18 07:43:15;;;;;;;34.33;18.55;;;6.80;99.90;;;;;;5059089;28;20423;-30
2022/11/18 07:45:41;;;;;;;33.88;18.92;;;6.90;99.90;;;;;;5048420;28;20029;-31
2022/11/18 07:48:07;;;;;;;36.45;20.10;;;6.90;99.90;;;;;;5059388;28;20028;-33
2022/11/18 07:50:32;;;;;;;35.60;18.58;;;6.90;99.90;;;;;;5059682;28;20040;-32
2022/11/18 07:52:58;;;;;;;37.03;17.70;;;6.80;99.90;;;;;;5064982;28;20029;-32
2022/11/18 07:55:24;;;;;;;30.52;17.58;;;6.90;99.90;;;;;;5055359;28;20389;-33
2022/11/18 07:57:49;;;;;;;31.63;17.75;;;6.80;99.90;;;;;;5045814;28;20043;-31
2022/11/18 08:00:16;;;;;;;29.75;16.35;;;6.80;99.90;;;;;;5058560;28;20500;-32
2022/11/18 08:02:42;;;;;;;30.83;16.13;;;6.80;99.90;;;;;;5050747;28;20426;-31
2022/11/18 08:05:09;;;;;;;29.55;16.15;;;6.80;99.90;;;;;;5039529;28;20078;-31
2022/11/18 08:07:34;;;;;;;29.65;16.95;;;6.80;99.90;;;;;;5050259;28;20378;-31
2022/11/18 08:10:02;;;;;;;31.38;17.77;;;6.80;99.90;;;;;;5067949;28;20032;-32
2022/11/18 08:12:29;;;;;;;26.38;16.92;;;6.80;99.90;;;;;;5059725;28;20132;-32
2022/11/18 08:14:56;;;;;;;29.02;15.55;;;6.80;99.90;;;;;;5060135;28;20033;-33
2022/11/18 08:17:22;;;;;;;27.05;15.90;;;6.80;99.90;;;;;;5051096;28;20043;-31
2022/11/18 08:19:47;;;;;;;29.05;16.10;;;6.80;99.90;;;;;;5061220;28;20040;-32
2022/11/18 08:22:15;;;;;;;27.35;15.90;;;6.90;99.90;;;;;;5063633;28;20128;-31
2022/11/18 08:24:41;;;;;;;32.80;17.10;;;6.90;99.90;;;;;;5056080;28;20043;-32
2022/11/18 08:27:07;;;;;;;29.20;16.55;;;6.90;99.90;;;;;;5053654;28;20032;-31
2022/11/18 08:29:32;;;;;;;30.38;15.05;;;6.90;99.90;;;;;;5069365;28;20047;-32
2022/11/18 08:31:58;;;;;;;26.08;15.85;;;6.90;99.90;;;;;;5053245;28;20548;-31
2022/11/18 08:34:24;;;;;;;23.70;14.55;;;6.90;99.90;;;;;;5055933;28;20083;-33
2022/11/18 08:36:50;;;;;;;24.13;14.02;;;6.90;99.90;;;;;;5076373;28;20093;-32
2022/11/18 08:39:15;;;;;;;26.50;15.30;;;6.90;99.90;;;;;;5057259;28;20508;-32
2022/11/18 08:41:43;;;;;;;25.00;14.55;;;6.90;99.90;;;;;;5057435;28;20044;-33
2022/11/18 08:44:11;;;;;;;24.35;15.05;;;6.90;99.90;;;;;;5055178;28;20075;-31
2022/11/18 08:46:37;;;;;;;24.63;14.82;;;6.90;99.90;;;;;;5058748;28;20105;-33
2022/11/18 08:49:03;;;;;;;21.45;13.40;;;6.90;99.90;;;;;;5052683;28;20369;-33
2022/11/18 08:51:29;;;;;;;26.30;18.17;;;6.80;99.90;;;;;;5055396;28;20119;-31
2022/11/18 08:53:55;;;;;;;82.70;59.13;;;6.80;99.90;;;;;;5050157;28;20413;-32
2022/11/18 08:56:23;;;;;;;23.15;14.38;;;6.80;99.90;;;;;;5068348;28;20494;-32
2022/11/18 08:58:49;;;;;;;20.67;13.25;;;6.80;99.90;;;;;;5056828;28;20075;-32
2022/11/18 09:01:18;;;;;;;24.73;14.43;;;6.80;99.90;;;;;;5050488;28;20451;-33
2022/11/18 09:03:43;;;;;;;27.60;15.70;;;6.80;99.90;;;;;;5073980;28;20041;-32
2022/11/18 09:06:11;;;;;;;25.30;15.23;;;6.80;99.90;;;;;;5056228;28;20032;-32
2022/11/18 09:08:39;;;;;;;27.17;16.58;;;6.90;99.90;;;;;;5055125;28;20036;-32
2022/11/18 09:11:16;;;;;;;23.90;14.57;;;6.90;99.90;;;;;;5075061;28;20051;-32
2022/11/18 09:13:43;;;;;;;23.70;13.68;;;6.90;99.90;;;;;;5075640;28;20032;-31
2022/11/18 09:16:09;;;;;;;20.70;12.93;;;6.90;99.90;;;;;;5054566;28;20478;-32
2022/11/18 09:18:35;;;;;;;20.25;12.70;;;6.90;99.90;;;;;;5054847;28;20106;-31
2022/11/18 09:21:07;;;;;;;21.60;13.00;;;6.90;99.90;;;;;;5066133;28;20044;-32
2022/11/18 09:23:35;;;;;;;19.92;12.93;;;6.90;99.90;;;;;;5052960;28;20032;-33
2022/11/18 09:26:12;;;;;;;21.20;12.38;;;6.90;99.90;;;;;;5055379;28;20552;-33
2022/11/18 09:28:38;;;;;;;21.08;14.63;;;6.90;99.90;;;;;;5066044;28;20032;-32
2022/11/18 09:31:16;;;;;;;26.45;15.60;;;7.00;99.90;;;;;;5053220;28;20040;-32
2022/11/18 09:33:42;;;;;;;23.88;15.10;;;7.00;99.90;;;;;;5060468;28;20043;-32
2022/11/18 09:36:24;;;;;;;25.98;14.25;;;6.90;99.90;;;;;;5056385;28;20072;-31
2022/11/18 09:38:51;;;;;;;22.95;14.50;;;6.90;99.90;;;;;;5055343;28;20130;-31
2022/11/18 09:41:25;;;;;;;21.45;13.95;;;6.90;99.90;;;;;;5055344;28;20036;-31
2022/11/18 09:44:06;;;;;;;19.67;13.05;;;6.90;99.90;;;;;;5077562;28;20039;-32
2022/11/18 09:46:51;;;;;;;23.35;13.55;;;6.90;99.90;;;;;;5060123;28;20090;-33
2022/11/18 09:49:30;;;;;;;19.30;12.98;;;6.90;99.90;;;;;;5055083;28;20039;-32
2022/11/18 09:52:00;;;;;;;22.55;13.15;;;6.90;99.90;;;;;;5062143;28;20038;-33
2022/11/18 09:54:30;;;;;;;20.67;13.18;;;6.90;99.90;;;;;;5076051;28;20047;-32
2022/11/18 09:56:57;;;;;;;20.13;13.10;;;6.90;99.90;;;;;;5060843;28;20333;-31
2022/11/18 09:59:26;;;;;;;22.33;13.85;;;6.90;99.90;;;;;;5066012;28;20072;-32
2022/11/18 10:01:56;;;;;;;21.27;12.77;;;6.90;99.90;;;;;;5054392;28;20175;-32
2022/11/18 10:04:22;;;;;;;20.10;12.68;;;6.80;99.90;;;;;;5053158;28;20106;-32
2022/11/18 10:06:49;;;;;;;17.38;11.88;;;6.80;99.90;;;;;;5052666;28;20044;-32
2022/11/18 10:09:40;;;;;;;20.85;12.68;;;6.80;99.90;;;;;;5060900;28;20032;-32
2022/11/18 10:12:28;;;;;;;19.48;12.75;;;6.80;99.90;;;;;;5057926;28;20050;-32
2022/11/18 10:15:03;;;;;;;20.33;12.40;;;6.80;99.90;;;;;;5049347;28;20107;-32
2022/11/18 10:17:38;;;;;;;20.00;12.07;;;6.80;99.90;;;;;;5066454;28;20438;-32
2022/11/18 10:20:09;;;;;;;20.90;12.77;;;6.90;99.90;;;;;;5070620;28;20044;-33
2022/11/18 10:23:01;;;;;;;21.17;12.38;;;6.90;99.90;;;;;;5067438;28;20044;-33
2022/11/18 10:25:27;;;;;;;22.55;13.55;;;6.90;99.90;;;;;;5052952;28;20037;-31
2022/11/18 10:27:55;;;;;;;21.85;13.63;;;7.00;99.90;;;;;;5045165;28;20056;-32
2022/11/18 10:30:23;;;;;;;20.92;13.85;;;7.00;99.90;;;;;;5051502;28;20120;-31
2022/11/18 10:33:15;;;;;;;21.20;13.32;;;7.10;99.90;;;;;;5053690;28;20707;-31
2022/11/18 10:35:41;;;;;;;17.73;12.40;;;7.00;99.90;;;;;;5052680;28;20070;-32
2022/11/18 10:38:13;;;;;;;19.83;12.43;;;7.00;99.90;;;;;;5053069;28;20041;-31
2022/11/18 10:40:45;;;;;;;20.70;12.60;;;7.00;99.90;;;;;;5068595;28;20047;-32
2022/11/18 10:43:12;;;;;;;21.20;13.07;;;7.00;99.90;;;;;;5051948;28;20032;-31
2022/11/18 10:45:38;;;;;;;21.73;13.73;;;7.00;99.90;;;;;;5052457;28;20036;-31
2022/11/18 10:48:08;;;;;;;19.33;12.85;;;7.00;99.90;;;;;;5052598;28;20063;-31
2022/11/18 10:50:38;;;;;;;18.15;12.45;;;6.90;99.90;;;;;;5051290;28;20524;-32
2022/11/18 10:53:25;;;;;;;20.13;12.75;;;6.90;99.90;;;;;;5063628;28;20036;-33
2022/11/18 10:55:58;;;;;;;25.10;13.70;;;7.00;99.90;;;;;;5052644;28;20098;-32
2022/11/18 10:58:25;;;;;;;21.48;13.55;;;6.90;99.90;;;;;;5051343;28;20032;-33
2022/11/18 11:00:51;;;;;;;22.35;13.32;;;6.90;99.90;;;;;;5051574;28;20040;-32
2022/11/18 11:03:28;;;;;;;18.63;13.23;;;6.90;99.90;;;;;;5056195;28;20177;-32
2022/11/18 11:06:21;;;;;;;19.30;13.20;;;6.90;99.90;;;;;;5049167;28;20070;-31
2022/11/18 11:08:52;;;;;;;18.88;12.25;;;6.90;99.90;;;;;;5053614;28;20508;-32
2022/11/18 11:11:25;;;;;;;20.17;12.80;;;6.90;99.90;;;;;;5052929;28;20052;-31
2022/11/18 11:13:54;;;;;;;19.63;12.65;;;6.90;99.90;;;;;;5044491;28;20486;-33
2022/11/18 11:16:20;;;;;;;18.90;12.25;;;6.90;99.90;;;;;;5059921;28;20048;-32
2022/11/18 11:18:52;;;;;;;18.77;11.55;;;6.80;99.90;;;;;;5049449;28;20355;-32
2022/11/18 11:21:23;;;;;;;18.58;11.77;;;6.80;99.90;;;;;;5049457;28;20095;-32
2022/11/18 11:23:50;;;;;;;16.63;11.45;;;6.80;99.90;;;;;;5036482;28;20041;-31
2022/11/18 11:26:38;;;;;;;17.67;11.77;;;6.70;99.90;;;;;;5052374;28;20095;-32
2022/11/18 11:29:30;;;;;;;16.35;10.68;;;6.70;99.90;;;;;;5052465;28;20047;-32
2022/11/18 11:31:55;;;;;;;17.65;10.25;;;6.70;99.90;;;;;;5058077;28;20036;-31
2022/11/18 11:34:39;;;;;;;16.70;10.57;;;6.70;99.90;;;;;;5062847;28;20043;-32
2022/11/18 11:37:08;;;;;;;16.08;9.88;;;6.70;99.90;;;;;;5074855;28;20037;-31
2022/11/18 11:39:57;;;;;;;13.73;9.48;;;6.70;99.90;;;;;;5072038;28;20127;-32
2022/11/18 11:42:26;;;;;;;12.52;8.65;;;6.60;99.90;;;;;;5043530;28;20470;-33
2022/11/18 11:45:13;;;;;;;14.48;9.15;;;6.60;99.90;;;;;;5068594;28;20028;-33
2022/11/18 11:48:00;;;;;;;16.17;9.80;;;6.60;99.90;;;;;;5046662;28;20055;-31
2022/11/18 11:50:54;;;;;;;12.40;8.77;;;6.60;99.90;;;;;;5068340;28;20592;-33
2022/11/18 11:53:22;;;;;;;14.15;9.05;;;6.50;99.90;;;;;;5063391;28;20449;-33
2022/11/18 11:55:54;;;;;;;14.73;9.65;;;6.50;99.90;;;;;;5059692;28;20047;-31
2022/11/18 11:58:44;;;;;;;15.02;9.40;;;6.50;99.90;;;;;;5064836;28;20232;-30
2022/11/18 12:01:46;;;;;;;13.20;9.15;;;6.50;99.90;;;;;;5066352;28;20045;-33
2022/11/18 12:04:33;;;;;;;14.55;10.00;;;6.50;99.90;;;;;;5034594;28;20048;-32
2022/11/18 12:06:59;;;;;;;15.80;9.65;;;6.50;99.90;;;;;;5052310;28;20397;-33
2022/11/18 12:09:57;;;;;;;16.52;10.57;;;6.60;99.90;;;;;;5050404;28;20039;-31
2022/11/18 12:12:41;;;;;;;16.45;10.77;;;6.60;99.90;;;;;;5049634;28;20390;-33
2022/11/18 12:15:44;;;;;;;13.75;9.00;;;6.70;99.90;;;;;;5068841;28;20032;-33
2022/11/18 12:18:12;;;;;;;16.58;10.38;;;6.70;99.90;;;;;;5053328;28;20072;-33
2022/11/18 12:20:47;;;;;;;18.58;10.70;;;6.80;99.90;;;;;;5072290;28;20478;-34
2022/11/18 12:23:21;;;;;;;16.77;10.57;;;6.80;99.90;;;;;;5054215;28;20029;-30
2022/11/18 12:25:47;;;;;;;15.07;10.25;;;6.80;99.90;;;;;;5058079;28;20040;-30
2022/11/18 12:28:44;;;;;;;14.88;10.40;;;6.80;99.90;;;;;;5074162;28;20043;-34
2022/11/18 12:31:30;;;;;;;15.35;10.63;;;6.80;99.90;;;;;;5049197;28;20497;-29
2022/11/18 12:33:57;;;;;;;16.88;10.50;;;6.80;99.90;;;;;;5068169;28;20040;-32
2022/11/18 12:36:27;;;;;;;18.42;10.90;;;6.90;99.90;;;;;;5092676;28;20055;-30
2022/11/18 12:38:54;;;;;;;15.35;9.60;;;6.90;99.90;;;;;;5093805;28;20405;-30
2022/11/18 12:44:24;;;;;;;15.38;10.10;;;6.90;99.90;;;;;;5095112;28;20673;-30
2022/11/18 12:46:58;;;;;;;16.65;10.93;;;6.80;99.90;;;;;;5076553;28;20123;-30
2022/11/18 12:49:24;;;;;;;18.17;11.63;;;6.70;99.90;;;;;;5076606;28;20044;-30
2022/11/18 12:51:51;;;;;;;17.67;10.77;;;6.70;99.90;;;;;;5076866;28;20396;-30
2022/11/18 12:54:25;;;;;;;17.98;10.98;;;6.70;99.90;;;;;;5076660;28;20454;-29
2022/11/18 12:56:52;;;;;;;19.13;11.73;;;6.70;99.90;;;;;;5075227;28;20048;-30
2022/11/18 12:59:26;;;;;;;19.15;12.73;;;6.70;99.90;;;;;;5076007;28;20040;-31
2022/11/18 13:02:23;;;;;;;19.75;12.65;;;6.70;99.90;;;;;;5076488;28;20044;-30
2022/11/18 13:05:22;;;;;;;19.55;11.55;;;6.60;99.90;;;;;;5063683;28;20322;-30
2022/11/18 13:08:12;;;;;;;19.75;11.98;;;6.50;99.90;;;;;;5042303;28;20086;-30
2022/11/18 13:11:43;;;;;;;18.83;11.82;;;6.40;99.90;;;;;;5075892;28;20520;-30
2022/11/18 13:13:39;;;;;;;20.60;12.95;;;6.40;99.90;;;;;;5094135;28;20123;-30
2022/11/18 13:19:20;;;;;;;;;;;6.40;99.90;;;;;;5095011;28;20043;-29
2022/11/18 13:24:49;;;;;;;20.63;13.50;;;6.40;99.90;;;;;;5094342;28;20122;-30